sensor_id;sensor_type;location;lat;lon;timestamp;P1;durP1;ratioP1;P2;durP2;ratioP2
49235;SDS011;35067;48.134;8.378;2024-03-29T00:00:05;0.90;;;0.70;;
49235;SDS011;35067;48.134;8.378;2024-03-29T00:01:06;0.82;;;0.60;;
49235;SDS011;35067;48.134;8.378;2024-03-29T00:02:07;1.97;;;0.73;;
49235;SDS011;35067;48.134;8.378;2024-03-29T00:03:08;1.60;;;0.60;;
49235;SDS011;35067;48.134;8.378;2024-03-29T00:04:10;1.25;;;0.70;;
49235;SDS011;35067;48.134;8.378;2024-03-29T00:05:10;0.70;;;0.57;;
49235;SDS011;35067;48.134;8.378;2024-03-29T00:06:11;1.80;;;0.60;;
49235;SDS011;35067;48.134;8.378;2024-03-29T00:07:12;2.97;;;1.03;;
49235;SDS011;35067;48.134;8.378;2024-03-29T00:08:12;0.90;;;0.70;;
49235;SDS011;35067;48.134;8.378;2024-03-29T00:09:13;2.00;;;0.80;;
49235;SDS011;35067;48.134;8.378;2024-03-29T00:10:14;1.87;;;0.60;;
49235;SDS011;35067;48.134;8.378;2024-03-29T00:11:14;0.80;;;0.60;;
49235;SDS011;35067;48.134;8.378;2024-03-29T00:12:15;2.03;;;0.73;;
49235;SDS011;35067;48.134;8.378;2024-03-29T00:13:16;0.67;;;0.60;;
49235;SDS011;35067;48.134;8.378;2024-03-29T00:14:16;1.67;;;0.70;;
49235;SDS011;35067;48.134;8.378;2024-03-29T00:15:17;1.23;;;0.70;;
49235;SDS011;35067;48.134;8.378;2024-03-29T00:16:17;1.03;;;0.60;;
49235;SDS011;35067;48.134;8.378;2024-03-29T00:17:19;1.77;;;0.77;;
49235;SDS011;35067;48.134;8.378;2024-03-29T00:18:19;1.37;;;0.70;;
49235;SDS011;35067;48.134;8.378;2024-03-29T00:19:20;1.47;;;0.77;;
49235;SDS011;35067;48.134;8.378;2024-03-29T00:20:21;1.23;;;0.83;;
49235;SDS011;35067;48.134;8.378;2024-03-29T00:21:23;1.98;;;0.82;;
49235;SDS011;35067;48.134;8.378;2024-03-29T00:22:24;1.30;;;0.90;;
49235;SDS011;35067;48.134;8.378;2024-03-29T00:23:25;1.43;;;0.80;;
49235;SDS011;35067;48.134;8.378;2024-03-29T00:24:26;0.52;;;0.52;;
49235;SDS011;35067;48.134;8.378;2024-03-29T00:25:27;2.30;;;0.70;;
49235;SDS011;35067;48.134;8.378;2024-03-29T00:26:27;0.90;;;0.80;;
49235;SDS011;35067;48.134;8.378;2024-03-29T00:27:28;1.00;;;0.90;;
49235;SDS011;35067;48.134;8.378;2024-03-29T00:28:29;1.15;;;0.70;;
49235;SDS011;35067;48.134;8.378;2024-03-29T00:29:30;0.60;;;0.60;;
49235;SDS011;35067;48.134;8.378;2024-03-29T00:30:31;1.10;;;0.73;;
49235;SDS011;35067;48.134;8.378;2024-03-29T00:31:32;0.87;;;0.87;;
49235;SDS011;35067;48.134;8.378;2024-03-29T00:32:33;0.77;;;0.67;;
49235;SDS011;35067;48.134;8.378;2024-03-29T00:33:34;1.30;;;0.70;;
49235;SDS011;35067;48.134;8.378;2024-03-29T00:34:35;1.60;;;0.73;;
49235;SDS011;35067;48.134;8.378;2024-03-29T00:35:35;1.97;;;0.70;;
49235;SDS011;35067;48.134;8.378;2024-03-29T00:36:36;1.57;;;1.00;;
49235;SDS011;35067;48.134;8.378;2024-03-29T00:37:37;0.60;;;0.60;;
49235;SDS011;35067;48.134;8.378;2024-03-29T00:38:37;0.80;;;0.80;;
49235;SDS011;35067;48.134;8.378;2024-03-29T00:39:38;0.87;;;0.60;;
49235;SDS011;35067;48.134;8.378;2024-03-29T00:40:39;0.70;;;0.50;;
49235;SDS011;35067;48.134;8.378;2024-03-29T00:41:39;1.67;;;0.77;;
49235;SDS011;35067;48.134;8.378;2024-03-29T00:42:40;1.40;;;0.87;;
49235;SDS011;35067;48.134;8.378;2024-03-29T00:43:41;0.93;;;0.70;;
49235;SDS011;35067;48.134;8.378;2024-03-29T00:44:42;0.83;;;0.70;;
49235;SDS011;35067;48.134;8.378;2024-03-29T00:45:43;0.82;;;0.80;;
49235;SDS011;35067;48.134;8.378;2024-03-29T00:46:44;1.83;;;0.70;;
49235;SDS011;35067;48.134;8.378;2024-03-29T00:47:45;0.70;;;0.70;;
49235;SDS011;35067;48.134;8.378;2024-03-29T00:48:45;1.13;;;0.53;;
49235;SDS011;35067;48.134;8.378;2024-03-29T00:49:47;0.90;;;0.70;;
49235;SDS011;35067;48.134;8.378;2024-03-29T00:50:48;1.80;;;0.60;;
49235;SDS011;35067;48.134;8.378;2024-03-29T00:51:50;0.93;;;0.80;;
49235;SDS011;35067;48.134;8.378;2024-03-29T00:52:50;0.97;;;0.80;;
49235;SDS011;35067;48.134;8.378;2024-03-29T00:53:51;0.60;;;0.60;;
49235;SDS011;35067;48.134;8.378;2024-03-29T00:54:54;1.17;;;0.93;;
49235;SDS011;35067;48.134;8.378;2024-03-29T00:55:54;1.63;;;0.90;;
49235;SDS011;35067;48.134;8.378;2024-03-29T00:56:55;1.73;;;0.93;;
49235;SDS011;35067;48.134;8.378;2024-03-29T00:57:56;1.80;;;0.80;;
49235;SDS011;35067;48.134;8.378;2024-03-29T00:58:57;3.90;;;0.90;;
49235;SDS011;35067;48.134;8.378;2024-03-29T00:59:57;1.33;;;0.90;;
49235;SDS011;35067;48.134;8.378;2024-03-29T01:00:58;1.17;;;0.70;;
49235;SDS011;35067;48.134;8.378;2024-03-29T01:01:59;1.63;;;0.77;;
49235;SDS011;35067;48.134;8.378;2024-03-29T01:02:59;0.60;;;0.60;;
49235;SDS011;35067;48.134;8.378;2024-03-29T01:04:00;2.03;;;1.00;;
49235;SDS011;35067;48.134;8.378;2024-03-29T01:05:01;0.87;;;0.80;;
49235;SDS011;35067;48.134;8.378;2024-03-29T01:06:02;0.98;;;0.75;;
49235;SDS011;35067;48.134;8.378;2024-03-29T01:07:04;0.77;;;0.60;;
49235;SDS011;35067;48.134;8.378;2024-03-29T01:08:05;1.93;;;0.70;;
49235;SDS011;35067;48.134;8.378;2024-03-29T01:09:06;1.27;;;0.73;;
49235;SDS011;35067;48.134;8.378;2024-03-29T01:10:07;3.78;;;0.80;;
49235;SDS011;35067;48.134;8.378;2024-03-29T01:11:09;1.27;;;0.90;;
49235;SDS011;35067;48.134;8.378;2024-03-29T01:12:10;0.90;;;0.70;;
49235;SDS011;35067;48.134;8.378;2024-03-29T01:13:11;1.05;;;0.60;;
49235;SDS011;35067;48.134;8.378;2024-03-29T01:14:11;0.60;;;0.60;;
49235;SDS011;35067;48.134;8.378;2024-03-29T01:15:12;2.47;;;0.70;;
49235;SDS011;35067;48.134;8.378;2024-03-29T01:16:13;3.13;;;0.60;;
49235;SDS011;35067;48.134;8.378;2024-03-29T01:17:13;0.70;;;0.60;;
49235;SDS011;35067;48.134;8.378;2024-03-29T01:18:14;0.60;;;0.60;;
49235;SDS011;35067;48.134;8.378;2024-03-29T01:19:14;1.10;;;0.60;;
49235;SDS011;35067;48.134;8.378;2024-03-29T01:20:15;1.43;;;0.70;;
49235;SDS011;35067;48.134;8.378;2024-03-29T01:21:16;0.70;;;0.60;;
49235;SDS011;35067;48.134;8.378;2024-03-29T01:22:18;0.70;;;0.50;;
49235;SDS011;35067;48.134;8.378;2024-03-29T01:23:18;1.27;;;0.70;;
49235;SDS011;35067;48.134;8.378;2024-03-29T01:24:19;1.07;;;0.50;;
49235;SDS011;35067;48.134;8.378;2024-03-29T01:25:20;0.53;;;0.53;;
49235;SDS011;35067;48.134;8.378;2024-03-29T01:26:21;0.63;;;0.60;;
49235;SDS011;35067;48.134;8.378;2024-03-29T01:27:22;0.47;;;0.47;;
49235;SDS011;35067;48.134;8.378;2024-03-29T01:28:22;1.30;;;0.90;;
49235;SDS011;35067;48.134;8.378;2024-03-29T01:29:23;1.60;;;0.50;;
49235;SDS011;35067;48.134;8.378;2024-03-29T01:30:24;1.70;;;0.73;;
49235;SDS011;35067;48.134;8.378;2024-03-29T01:31:24;0.60;;;0.60;;
49235;SDS011;35067;48.134;8.378;2024-03-29T01:32:25;2.65;;;0.70;;
49235;SDS011;35067;48.134;8.378;2024-03-29T01:33:26;0.87;;;0.60;;
49235;SDS011;35067;48.134;8.378;2024-03-29T01:34:28;0.43;;;0.43;;
49235;SDS011;35067;48.134;8.378;2024-03-29T01:35:28;0.70;;;0.40;;
49235;SDS011;35067;48.134;8.378;2024-03-29T01:36:29;0.57;;;0.50;;
49235;SDS011;35067;48.134;8.378;2024-03-29T01:37:30;1.03;;;0.60;;
49235;SDS011;35067;48.134;8.378;2024-03-29T01:38:30;3.13;;;0.50;;
49235;SDS011;35067;48.134;8.378;2024-03-29T01:39:31;0.63;;;0.63;;
49235;SDS011;35067;48.134;8.378;2024-03-29T01:40:32;1.37;;;0.50;;
49235;SDS011;35067;48.134;8.378;2024-03-29T01:41:32;0.40;;;0.40;;
49235;SDS011;35067;48.134;8.378;2024-03-29T01:42:33;1.17;;;0.80;;
49235;SDS011;35067;48.134;8.378;2024-03-29T01:43:34;1.30;;;0.70;;
49235;SDS011;35067;48.134;8.378;2024-03-29T01:44:35;1.10;;;0.60;;
49235;SDS011;35067;48.134;8.378;2024-03-29T01:45:39;1.60;;;0.60;;
49235;SDS011;35067;48.134;8.378;2024-03-29T01:46:42;0.60;;;0.60;;
49235;SDS011;35067;48.134;8.378;2024-03-29T01:47:44;0.50;;;0.50;;
49235;SDS011;35067;48.134;8.378;2024-03-29T01:48:46;0.80;;;0.55;;
49235;SDS011;35067;48.134;8.378;2024-03-29T01:49:47;1.13;;;0.40;;
49235;SDS011;35067;48.134;8.378;2024-03-29T01:50:48;0.60;;;0.40;;
49235;SDS011;35067;48.134;8.378;2024-03-29T01:51:49;0.40;;;0.40;;
49235;SDS011;35067;48.134;8.378;2024-03-29T01:52:50;1.23;;;0.40;;
49235;SDS011;35067;48.134;8.378;2024-03-29T01:53:52;0.60;;;0.43;;
49235;SDS011;35067;48.134;8.378;2024-03-29T01:54:54;0.73;;;0.63;;
49235;SDS011;35067;48.134;8.378;2024-03-29T01:55:55;0.50;;;0.50;;
49235;SDS011;35067;48.134;8.378;2024-03-29T01:56:56;0.60;;;0.50;;
49235;SDS011;35067;48.134;8.378;2024-03-29T01:57:57;0.50;;;0.50;;
49235;SDS011;35067;48.134;8.378;2024-03-29T01:58:58;0.40;;;0.40;;
49235;SDS011;35067;48.134;8.378;2024-03-29T01:59:59;0.50;;;0.50;;
49235;SDS011;35067;48.134;8.378;2024-03-29T02:01:00;0.50;;;0.50;;
49235;SDS011;35067;48.134;8.378;2024-03-29T02:02:02;1.15;;;0.50;;
49235;SDS011;35067;48.134;8.378;2024-03-29T02:03:03;0.88;;;0.40;;
49235;SDS011;35067;48.134;8.378;2024-03-29T02:04:09;1.50;;;0.57;;
49235;SDS011;35067;48.134;8.378;2024-03-29T02:05:10;0.40;;;0.35;;
49235;SDS011;35067;48.134;8.378;2024-03-29T02:06:11;1.27;;;0.60;;
49235;SDS011;35067;48.134;8.378;2024-03-29T02:07:12;0.45;;;0.45;;
49235;SDS011;35067;48.134;8.378;2024-03-29T02:08:13;0.75;;;0.45;;
49235;SDS011;35067;48.134;8.378;2024-03-29T02:09:15;0.40;;;0.40;;
49235;SDS011;35067;48.134;8.378;2024-03-29T02:10:16;1.17;;;0.50;;
49235;SDS011;35067;48.134;8.378;2024-03-29T02:11:17;1.33;;;0.40;;
49235;SDS011;35067;48.134;8.378;2024-03-29T02:12:18;0.52;;;0.50;;
49235;SDS011;35067;48.134;8.378;2024-03-29T02:13:18;2.60;;;0.43;;
49235;SDS011;35067;48.134;8.378;2024-03-29T02:14:19;0.90;;;0.53;;
49235;SDS011;35067;48.134;8.378;2024-03-29T02:15:20;0.40;;;0.40;;
49235;SDS011;35067;48.134;8.378;2024-03-29T02:16:20;1.40;;;0.47;;
49235;SDS011;35067;48.134;8.378;2024-03-29T02:17:21;0.77;;;0.50;;
49235;SDS011;35067;48.134;8.378;2024-03-29T02:18:22;1.00;;;0.50;;
49235;SDS011;35067;48.134;8.378;2024-03-29T02:19:22;0.60;;;0.60;;
49235;SDS011;35067;48.134;8.378;2024-03-29T02:20:23;0.70;;;0.60;;
49235;SDS011;35067;48.134;8.378;2024-03-29T02:21:25;0.50;;;0.50;;
49235;SDS011;35067;48.134;8.378;2024-03-29T02:22:27;0.60;;;0.60;;
49235;SDS011;35067;48.134;8.378;2024-03-29T02:23:29;0.63;;;0.50;;
49235;SDS011;35067;48.134;8.378;2024-03-29T02:24:32;0.70;;;0.65;;
49235;SDS011;35067;48.134;8.378;2024-03-29T02:25:33;0.40;;;0.40;;
49235;SDS011;35067;48.134;8.378;2024-03-29T02:26:35;0.50;;;0.50;;
49235;SDS011;35067;48.134;8.378;2024-03-29T02:27:38;0.40;;;0.40;;
49235;SDS011;35067;48.134;8.378;2024-03-29T02:28:40;1.10;;;0.40;;
49235;SDS011;35067;48.134;8.378;2024-03-29T02:29:40;0.70;;;0.70;;
49235;SDS011;35067;48.134;8.378;2024-03-29T02:30:41;0.63;;;0.47;;
49235;SDS011;35067;48.134;8.378;2024-03-29T02:31:41;1.23;;;0.40;;
49235;SDS011;35067;48.134;8.378;2024-03-29T02:32:42;0.40;;;0.40;;
49235;SDS011;35067;48.134;8.378;2024-03-29T02:33:43;0.68;;;0.52;;
49235;SDS011;35067;48.134;8.378;2024-03-29T02:34:44;0.50;;;0.50;;
49235;SDS011;35067;48.134;8.378;2024-03-29T02:35:45;2.10;;;0.60;;
49235;SDS011;35067;48.134;8.378;2024-03-29T02:36:45;3.50;;;0.50;;
49235;SDS011;35067;48.134;8.378;2024-03-29T02:37:46;0.30;;;0.30;;
49235;SDS011;35067;48.134;8.378;2024-03-29T02:38:47;0.50;;;0.50;;
49235;SDS011;35067;48.134;8.378;2024-03-29T02:39:47;0.40;;;0.40;;
49235;SDS011;35067;48.134;8.378;2024-03-29T02:40:48;0.93;;;0.50;;
49235;SDS011;35067;48.134;8.378;2024-03-29T02:41:48;2.07;;;0.50;;
49235;SDS011;35067;48.134;8.378;2024-03-29T02:42:49;0.40;;;0.40;;
49235;SDS011;35067;48.134;8.378;2024-03-29T02:43:50;1.15;;;0.73;;
49235;SDS011;35067;48.134;8.378;2024-03-29T02:44:51;1.03;;;0.50;;
49235;SDS011;35067;48.134;8.378;2024-03-29T02:45:52;0.80;;;0.63;;
49235;SDS011;35067;48.134;8.378;2024-03-29T02:46:53;0.53;;;0.47;;
49235;SDS011;35067;48.134;8.378;2024-03-29T02:47:53;0.63;;;0.43;;
49235;SDS011;35067;48.134;8.378;2024-03-29T02:48:54;0.53;;;0.53;;
49235;SDS011;35067;48.134;8.378;2024-03-29T02:49:55;2.13;;;0.70;;
49235;SDS011;35067;48.134;8.378;2024-03-29T02:50:55;0.57;;;0.47;;
49235;SDS011;35067;48.134;8.378;2024-03-29T02:51:56;0.50;;;0.50;;
49235;SDS011;35067;48.134;8.378;2024-03-29T02:52:57;0.67;;;0.53;;
49235;SDS011;35067;48.134;8.378;2024-03-29T02:53:58;1.20;;;0.60;;
49235;SDS011;35067;48.134;8.378;2024-03-29T02:54:58;0.50;;;0.50;;
49235;SDS011;35067;48.134;8.378;2024-03-29T02:55:59;0.57;;;0.57;;
49235;SDS011;35067;48.134;8.378;2024-03-29T02:57:00;1.47;;;0.60;;
49235;SDS011;35067;48.134;8.378;2024-03-29T02:58:00;0.60;;;0.60;;
49235;SDS011;35067;48.134;8.378;2024-03-29T02:59:01;1.80;;;0.60;;
49235;SDS011;35067;48.134;8.378;2024-03-29T03:00:02;2.35;;;0.73;;
49235;SDS011;35067;48.134;8.378;2024-03-29T03:01:06;1.15;;;0.90;;
49235;SDS011;35067;48.134;8.378;2024-03-29T03:02:08;2.38;;;1.55;;
49235;SDS011;35067;48.134;8.378;2024-03-29T03:03:09;1.10;;;1.00;;
49235;SDS011;35067;48.134;8.378;2024-03-29T03:04:09;1.23;;;0.90;;
49235;SDS011;35067;48.134;8.378;2024-03-29T03:05:10;2.97;;;1.10;;
49235;SDS011;35067;48.134;8.378;2024-03-29T03:06:11;1.50;;;1.00;;
49235;SDS011;35067;48.134;8.378;2024-03-29T03:07:11;1.47;;;0.70;;
49235;SDS011;35067;48.134;8.378;2024-03-29T03:08:31;0.80;;;0.80;;
49235;SDS011;35067;48.134;8.378;2024-03-29T03:09:50;0.70;;;0.70;;
49235;SDS011;35067;48.134;8.378;2024-03-29T03:11:09;1.15;;;0.80;;
49235;SDS011;35067;48.134;8.378;2024-03-29T03:12:10;1.00;;;0.90;;
49235;SDS011;35067;48.134;8.378;2024-03-29T03:13:10;0.90;;;0.70;;
49235;SDS011;35067;48.134;8.378;2024-03-29T03:14:11;1.00;;;0.70;;
49235;SDS011;35067;48.134;8.378;2024-03-29T03:15:12;1.50;;;0.70;;
49235;SDS011;35067;48.134;8.378;2024-03-29T03:16:12;0.60;;;0.60;;
49235;SDS011;35067;48.134;8.378;2024-03-29T03:17:13;0.53;;;0.50;;
49235;SDS011;35067;48.134;8.378;2024-03-29T03:18:14;0.60;;;0.60;;
49235;SDS011;35067;48.134;8.378;2024-03-29T03:19:15;0.50;;;0.50;;
49235;SDS011;35067;48.134;8.378;2024-03-29T03:20:15;0.40;;;0.40;;
49235;SDS011;35067;48.134;8.378;2024-03-29T03:21:16;0.97;;;0.57;;
49235;SDS011;35067;48.134;8.378;2024-03-29T03:22:17;0.50;;;0.50;;
49235;SDS011;35067;48.134;8.378;2024-03-29T03:23:18;0.70;;;0.60;;
49235;SDS011;35067;48.134;8.378;2024-03-29T03:24:18;0.43;;;0.43;;
49235;SDS011;35067;48.134;8.378;2024-03-29T03:25:19;0.50;;;0.50;;
49235;SDS011;35067;48.134;8.378;2024-03-29T03:26:20;1.10;;;0.60;;
49235;SDS011;35067;48.134;8.378;2024-03-29T03:27:22;0.75;;;0.52;;
49235;SDS011;35067;48.134;8.378;2024-03-29T03:28:23;0.50;;;0.50;;
49235;SDS011;35067;48.134;8.378;2024-03-29T03:29:24;0.50;;;0.50;;
49235;SDS011;35067;48.134;8.378;2024-03-29T03:30:25;0.50;;;0.50;;
49235;SDS011;35067;48.134;8.378;2024-03-29T03:31:25;0.50;;;0.50;;
49235;SDS011;35067;48.134;8.378;2024-03-29T03:32:26;0.77;;;0.57;;
49235;SDS011;35067;48.134;8.378;2024-03-29T03:33:27;0.77;;;0.50;;
49235;SDS011;35067;48.134;8.378;2024-03-29T03:34:27;1.80;;;0.70;;
49235;SDS011;35067;48.134;8.378;2024-03-29T03:35:28;0.57;;;0.53;;
49235;SDS011;35067;48.134;8.378;2024-03-29T03:36:28;0.40;;;0.40;;
49235;SDS011;35067;48.134;8.378;2024-03-29T03:37:29;1.33;;;0.60;;
49235;SDS011;35067;48.134;8.378;2024-03-29T03:38:30;0.60;;;0.43;;
49235;SDS011;35067;48.134;8.378;2024-03-29T03:39:32;0.73;;;0.52;;
49235;SDS011;35067;48.134;8.378;2024-03-29T03:40:33;0.50;;;0.50;;
49235;SDS011;35067;48.134;8.378;2024-03-29T03:41:34;2.35;;;0.50;;
49235;SDS011;35067;48.134;8.378;2024-03-29T03:42:35;0.50;;;0.50;;
49235;SDS011;35067;48.134;8.378;2024-03-29T03:43:36;0.53;;;0.53;;
49235;SDS011;35067;48.134;8.378;2024-03-29T03:44:36;0.70;;;0.60;;
49235;SDS011;35067;48.134;8.378;2024-03-29T03:45:38;0.80;;;0.57;;
49235;SDS011;35067;48.134;8.378;2024-03-29T03:46:39;0.40;;;0.40;;
49235;SDS011;35067;48.134;8.378;2024-03-29T03:47:40;0.50;;;0.40;;
49235;SDS011;35067;48.134;8.378;2024-03-29T03:48:41;0.63;;;0.50;;
49235;SDS011;35067;48.134;8.378;2024-03-29T03:49:41;0.50;;;0.50;;
49235;SDS011;35067;48.134;8.378;2024-03-29T03:50:42;0.63;;;0.50;;
49235;SDS011;35067;48.134;8.378;2024-03-29T03:51:42;0.43;;;0.40;;
49235;SDS011;35067;48.134;8.378;2024-03-29T03:52:44;0.47;;;0.47;;
49235;SDS011;35067;48.134;8.378;2024-03-29T03:53:44;0.57;;;0.33;;
49235;SDS011;35067;48.134;8.378;2024-03-29T03:54:45;0.40;;;0.40;;
49235;SDS011;35067;48.134;8.378;2024-03-29T03:55:46;0.47;;;0.40;;
49235;SDS011;35067;48.134;8.378;2024-03-29T03:56:46;0.63;;;0.40;;
49235;SDS011;35067;48.134;8.378;2024-03-29T03:57:47;0.50;;;0.50;;
49235;SDS011;35067;48.134;8.378;2024-03-29T03:58:48;0.30;;;0.30;;
49235;SDS011;35067;48.134;8.378;2024-03-29T03:59:51;0.53;;;0.50;;
49235;SDS011;35067;48.134;8.378;2024-03-29T04:00:52;2.03;;;0.50;;
49235;SDS011;35067;48.134;8.378;2024-03-29T04:01:53;0.40;;;0.40;;
49235;SDS011;35067;48.134;8.378;2024-03-29T04:02:54;0.50;;;0.50;;
49235;SDS011;35067;48.134;8.378;2024-03-29T04:03:56;0.30;;;0.30;;
49235;SDS011;35067;48.134;8.378;2024-03-29T04:04:57;0.70;;;0.47;;
49235;SDS011;35067;48.134;8.378;2024-03-29T04:05:57;0.40;;;0.40;;
49235;SDS011;35067;48.134;8.378;2024-03-29T04:07:03;0.40;;;0.40;;
49235;SDS011;35067;48.134;8.378;2024-03-29T04:08:04;1.23;;;0.40;;
49235;SDS011;35067;48.134;8.378;2024-03-29T04:09:05;1.27;;;0.50;;
49235;SDS011;35067;48.134;8.378;2024-03-29T04:10:06;0.40;;;0.40;;
49235;SDS011;35067;48.134;8.378;2024-03-29T04:11:06;0.30;;;0.30;;
49235;SDS011;35067;48.134;8.378;2024-03-29T04:12:07;0.40;;;0.40;;
49235;SDS011;35067;48.134;8.378;2024-03-29T04:13:08;0.40;;;0.40;;
49235;SDS011;35067;48.134;8.378;2024-03-29T04:14:08;0.40;;;0.40;;
49235;SDS011;35067;48.134;8.378;2024-03-29T04:15:09;0.40;;;0.40;;
49235;SDS011;35067;48.134;8.378;2024-03-29T04:16:10;0.93;;;0.40;;
49235;SDS011;35067;48.134;8.378;2024-03-29T04:17:10;0.40;;;0.40;;
49235;SDS011;35067;48.134;8.378;2024-03-29T04:18:12;0.50;;;0.50;;
49235;SDS011;35067;48.134;8.378;2024-03-29T04:19:13;0.40;;;0.40;;
49235;SDS011;35067;48.134;8.378;2024-03-29T04:20:13;0.43;;;0.43;;
49235;SDS011;35067;48.134;8.378;2024-03-29T04:21:14;0.87;;;0.43;;
49235;SDS011;35067;48.134;8.378;2024-03-29T04:22:15;2.50;;;0.47;;
49235;SDS011;35067;48.134;8.378;2024-03-29T04:23:15;0.30;;;0.30;;
49235;SDS011;35067;48.134;8.378;2024-03-29T04:24:16;0.40;;;0.40;;
49235;SDS011;35067;48.134;8.378;2024-03-29T04:25:17;0.37;;;0.37;;
49235;SDS011;35067;48.134;8.378;2024-03-29T04:26:17;0.93;;;0.50;;
49235;SDS011;35067;48.134;8.378;2024-03-29T04:27:19;0.40;;;0.40;;
49235;SDS011;35067;48.134;8.378;2024-03-29T04:28:19;0.40;;;0.40;;
49235;SDS011;35067;48.134;8.378;2024-03-29T04:29:20;0.40;;;0.40;;
49235;SDS011;35067;48.134;8.378;2024-03-29T04:30:21;0.23;;;0.23;;
49235;SDS011;35067;48.134;8.378;2024-03-29T04:31:22;0.70;;;0.30;;
49235;SDS011;35067;48.134;8.378;2024-03-29T04:32:22;1.10;;;0.43;;
49235;SDS011;35067;48.134;8.378;2024-03-29T04:33:23;0.40;;;0.40;;
49235;SDS011;35067;48.134;8.378;2024-03-29T04:34:25;0.55;;;0.40;;
49235;SDS011;35067;48.134;8.378;2024-03-29T04:35:25;1.37;;;0.47;;
49235;SDS011;35067;48.134;8.378;2024-03-29T04:36:26;0.30;;;0.30;;
49235;SDS011;35067;48.134;8.378;2024-03-29T04:37:27;0.70;;;0.47;;
49235;SDS011;35067;48.134;8.378;2024-03-29T04:38:27;0.40;;;0.40;;
49235;SDS011;35067;48.134;8.378;2024-03-29T04:39:28;0.40;;;0.40;;
49235;SDS011;35067;48.134;8.378;2024-03-29T04:40:29;0.50;;;0.50;;
49235;SDS011;35067;48.134;8.378;2024-03-29T04:41:30;0.30;;;0.30;;
49235;SDS011;35067;48.134;8.378;2024-03-29T04:42:34;0.40;;;0.40;;
49235;SDS011;35067;48.134;8.378;2024-03-29T04:43:34;0.40;;;0.40;;
49235;SDS011;35067;48.134;8.378;2024-03-29T04:44:35;0.53;;;0.53;;
49235;SDS011;35067;48.134;8.378;2024-03-29T04:45:36;0.40;;;0.40;;
49235;SDS011;35067;48.134;8.378;2024-03-29T04:46:36;0.50;;;0.40;;
49235;SDS011;35067;48.134;8.378;2024-03-29T04:47:37;0.73;;;0.40;;
49235;SDS011;35067;48.134;8.378;2024-03-29T04:48:38;0.50;;;0.50;;
49235;SDS011;35067;48.134;8.378;2024-03-29T04:49:41;0.85;;;0.50;;
49235;SDS011;35067;48.134;8.378;2024-03-29T04:50:42;0.30;;;0.30;;
49235;SDS011;35067;48.134;8.378;2024-03-29T04:51:43;0.40;;;0.40;;
49235;SDS011;35067;48.134;8.378;2024-03-29T04:52:43;0.30;;;0.30;;
49235;SDS011;35067;48.134;8.378;2024-03-29T04:53:44;0.57;;;0.40;;
49235;SDS011;35067;48.134;8.378;2024-03-29T04:54:45;0.50;;;0.50;;
49235;SDS011;35067;48.134;8.378;2024-03-29T04:55:45;0.50;;;0.50;;
49235;SDS011;35067;48.134;8.378;2024-03-29T04:56:48;0.70;;;0.32;;
49235;SDS011;35067;48.134;8.378;2024-03-29T04:57:48;0.40;;;0.40;;
49235;SDS011;35067;48.134;8.378;2024-03-29T04:58:49;0.40;;;0.40;;
49235;SDS011;35067;48.134;8.378;2024-03-29T04:59:50;0.40;;;0.30;;
49235;SDS011;35067;48.134;8.378;2024-03-29T05:00:51;0.30;;;0.30;;
49235;SDS011;35067;48.134;8.378;2024-03-29T05:01:52;0.43;;;0.38;;
49235;SDS011;35067;48.134;8.378;2024-03-29T05:02:55;0.45;;;0.30;;
49235;SDS011;35067;48.134;8.378;2024-03-29T05:03:56;0.30;;;0.30;;
49235;SDS011;35067;48.134;8.378;2024-03-29T05:04:56;0.57;;;0.30;;
49235;SDS011;35067;48.134;8.378;2024-03-29T05:05:58;0.40;;;0.40;;
49235;SDS011;35067;48.134;8.378;2024-03-29T05:06:58;1.63;;;0.50;;
49235;SDS011;35067;48.134;8.378;2024-03-29T05:07:59;0.47;;;0.40;;
49235;SDS011;35067;48.134;8.378;2024-03-29T05:09:00;0.20;;;0.20;;
49235;SDS011;35067;48.134;8.378;2024-03-29T05:10:01;0.63;;;0.40;;
49235;SDS011;35067;48.134;8.378;2024-03-29T05:11:06;0.30;;;0.30;;
49235;SDS011;35067;48.134;8.378;2024-03-29T05:12:07;0.50;;;0.40;;
49235;SDS011;35067;48.134;8.378;2024-03-29T05:13:08;0.30;;;0.30;;
49235;SDS011;35067;48.134;8.378;2024-03-29T05:14:09;0.60;;;0.60;;
49235;SDS011;35067;48.134;8.378;2024-03-29T05:15:10;0.60;;;0.40;;
49235;SDS011;35067;48.134;8.378;2024-03-29T05:16:11;0.40;;;0.32;;
49235;SDS011;35067;48.134;8.378;2024-03-29T05:17:12;0.30;;;0.30;;
49235;SDS011;35067;48.134;8.378;2024-03-29T05:18:12;0.30;;;0.30;;
49235;SDS011;35067;48.134;8.378;2024-03-29T05:19:13;0.67;;;0.40;;
49235;SDS011;35067;48.134;8.378;2024-03-29T05:20:15;0.40;;;0.40;;
49235;SDS011;35067;48.134;8.378;2024-03-29T05:21:15;0.50;;;0.50;;
49235;SDS011;35067;48.134;8.378;2024-03-29T05:22:16;0.30;;;0.30;;
49235;SDS011;35067;48.134;8.378;2024-03-29T05:23:17;0.87;;;0.50;;
49235;SDS011;35067;48.134;8.378;2024-03-29T05:24:17;0.80;;;0.60;;
49235;SDS011;35067;48.134;8.378;2024-03-29T05:25:18;0.30;;;0.30;;
49235;SDS011;35067;48.134;8.378;2024-03-29T05:26:19;1.03;;;0.40;;
49235;SDS011;35067;48.134;8.378;2024-03-29T05:27:19;0.57;;;0.57;;
49235;SDS011;35067;48.134;8.378;2024-03-29T05:28:20;0.50;;;0.50;;
49235;SDS011;35067;48.134;8.378;2024-03-29T05:29:21;0.50;;;0.50;;
49235;SDS011;35067;48.134;8.378;2024-03-29T05:30:22;0.97;;;0.60;;
49235;SDS011;35067;48.134;8.378;2024-03-29T05:31:24;0.45;;;0.40;;
49235;SDS011;35067;48.134;8.378;2024-03-29T05:32:25;0.40;;;0.40;;
49235;SDS011;35067;48.134;8.378;2024-03-29T05:33:26;0.70;;;0.70;;
49235;SDS011;35067;48.134;8.378;2024-03-29T05:34:27;0.77;;;0.40;;
49235;SDS011;35067;48.134;8.378;2024-03-29T05:35:27;0.60;;;0.50;;
49235;SDS011;35067;48.134;8.378;2024-03-29T05:36:28;1.23;;;0.40;;
49235;SDS011;35067;48.134;8.378;2024-03-29T05:37:29;0.70;;;0.60;;
49235;SDS011;35067;48.134;8.378;2024-03-29T05:38:29;0.40;;;0.40;;
49235;SDS011;35067;48.134;8.378;2024-03-29T05:39:30;0.63;;;0.60;;
49235;SDS011;35067;48.134;8.378;2024-03-29T05:40:31;0.70;;;0.53;;
49235;SDS011;35067;48.134;8.378;2024-03-29T05:41:32;0.40;;;0.40;;
49235;SDS011;35067;48.134;8.378;2024-03-29T05:42:32;1.40;;;0.50;;
49235;SDS011;35067;48.134;8.378;2024-03-29T05:43:35;1.05;;;0.50;;
49235;SDS011;35067;48.134;8.378;2024-03-29T05:44:36;1.73;;;0.60;;
49235;SDS011;35067;48.134;8.378;2024-03-29T05:45:37;1.13;;;0.40;;
49235;SDS011;35067;48.134;8.378;2024-03-29T05:46:37;0.50;;;0.50;;
49235;SDS011;35067;48.134;8.378;2024-03-29T05:47:40;0.60;;;0.50;;
49235;SDS011;35067;48.134;8.378;2024-03-29T05:48:40;0.63;;;0.53;;
49235;SDS011;35067;48.134;8.378;2024-03-29T05:49:41;0.80;;;0.60;;
49235;SDS011;35067;48.134;8.378;2024-03-29T05:50:42;3.23;;;0.50;;
49235;SDS011;35067;48.134;8.378;2024-03-29T05:51:42;0.53;;;0.40;;
49235;SDS011;35067;48.134;8.378;2024-03-29T05:52:43;0.50;;;0.40;;
49235;SDS011;35067;48.134;8.378;2024-03-29T05:53:44;0.50;;;0.40;;
49235;SDS011;35067;48.134;8.378;2024-03-29T05:54:45;0.50;;;0.50;;
49235;SDS011;35067;48.134;8.378;2024-03-29T05:55:46;0.50;;;0.50;;
49235;SDS011;35067;48.134;8.378;2024-03-29T05:56:47;1.03;;;0.50;;
49235;SDS011;35067;48.134;8.378;2024-03-29T05:57:47;0.60;;;0.50;;
49235;SDS011;35067;48.134;8.378;2024-03-29T05:58:48;0.50;;;0.50;;
49235;SDS011;35067;48.134;8.378;2024-03-29T05:59:49;1.20;;;0.60;;
49235;SDS011;35067;48.134;8.378;2024-03-29T06:00:49;0.50;;;0.50;;
49235;SDS011;35067;48.134;8.378;2024-03-29T06:01:50;0.50;;;0.50;;
49235;SDS011;35067;48.134;8.378;2024-03-29T06:02:51;0.60;;;0.50;;
49235;SDS011;35067;48.134;8.378;2024-03-29T06:03:52;0.67;;;0.60;;
49235;SDS011;35067;48.134;8.378;2024-03-29T06:04:54;1.65;;;0.80;;
49235;SDS011;35067;48.134;8.378;2024-03-29T06:05:55;0.87;;;0.80;;
49235;SDS011;35067;48.134;8.378;2024-03-29T06:06:56;1.48;;;0.60;;
49235;SDS011;35067;48.134;8.378;2024-03-29T06:07:58;0.50;;;0.50;;